Christiana Airport


Codes: FACK/
Name: Christiana Airport
City: Christiana
Country: South Africa
Elevation: 3978 ft.

Photos at Christiana Airport


   Photos courtesy of SpottingLog. You can add your own sightings and photos by signing up for a free trial today.



No photos found.

Weather at Christiana Airport


Time (UTC)DescriptionTempratureWindCloud coverageVisibilityPressureHumidity
17-Jun-2024 06:00Clear Sky10°C11 mph, N0%10000m1023hPa63%
17-Jun-2024 09:00Clear Sky15°C18 mph, N0%10000m1022hPa52%
17-Jun-2024 12:00Clear Sky21°C20 mph, NW0%10000m1017hPa36%
17-Jun-2024 15:00Clear Sky19°C16 mph, NW7%10000m1017hPa32%
17-Jun-2024 18:00Clear Sky14°C9 mph, NW5%10000m1019hPa43%
17-Jun-2024 21:00Clear Sky13°C9 mph, NW0%10000m1019hPa48%
18-Jun-2024 00:00Clear Sky11°C9 mph, NW0%10000m1018hPa55%
18-Jun-2024 03:00Clear Sky9°C7 mph, NW0%10000m1019hPa56%
18-Jun-2024 06:00Clear Sky10°C4 mph, NW0%10000m1020hPa56%
18-Jun-2024 09:00Clear Sky17°C9 mph, NW0%10000m1019hPa28%
18-Jun-2024 12:00Clear Sky21°C11 mph, W0%10000m1016hPa18%
18-Jun-2024 15:00Clear Sky19°C7 mph, W0%10000m1015hPa19%
18-Jun-2024 18:00Clear Sky13°C2 mph, W0%10000m1018hPa27%
18-Jun-2024 21:00Clear Sky11°C4 mph, W0%10000m1019hPa30%
19-Jun-2024 00:00Clear Sky9°C4 mph, W0%10000m1019hPa33%
19-Jun-2024 03:00Clear Sky8°C4 mph, SW0%10000m1019hPa36%
19-Jun-2024 06:00Clear Sky9°C4 mph, SW0%10000m1021hPa37%
19-Jun-2024 09:00Clear Sky16°C2 mph, S0%10000m1021hPa23%
19-Jun-2024 12:00Clear Sky19°C2 mph, SW0%10000m1018hPa17%
19-Jun-2024 15:00Clear Sky17°C4 mph, S0%10000m1018hPa21%
19-Jun-2024 18:00Clear Sky13°C9 mph, E0%10000m1021hPa25%
19-Jun-2024 21:00Clear Sky11°C9 mph, E0%10000m1022hPa28%
20-Jun-2024 00:00Clear Sky10°C9 mph, NE0%10000m1022hPa29%
20-Jun-2024 03:00Clear Sky9°C11 mph, NE0%10000m1023hPa31%
20-Jun-2024 06:00Clear Sky9°C11 mph, NE0%10000m1024hPa29%
20-Jun-2024 09:00Clear Sky20°C13 mph, NE0%10000m1021hPa17%
20-Jun-2024 12:00Clear Sky25°C18 mph, NW0%10000m1017hPa15%
20-Jun-2024 15:00Clear Sky21°C9 mph, N0%10000m1018hPa18%
20-Jun-2024 18:00Clear Sky16°C13 mph, N0%10000m1020hPa23%
20-Jun-2024 21:00Clear Sky15°C13 mph, N1%10000m1022hPa26%
21-Jun-2024 00:00Clear Sky14°C13 mph, N0%10000m1022hPa31%
21-Jun-2024 03:00Clear Sky13°C20 mph, N0%10000m1022hPa43%
21-Jun-2024 06:00Clear Sky13°C13 mph, N0%10000m1024hPa55%
21-Jun-2024 09:00Clear Sky20°C20 mph, N2%10000m1023hPa32%
21-Jun-2024 12:00Clear Sky24°C18 mph, NW6%10000m1019hPa24%
21-Jun-2024 15:00Clear Sky22°C11 mph, NW1%10000m1019hPa26%
21-Jun-2024 18:00Clear Sky16°C9 mph, N0%10000m1022hPa38%
21-Jun-2024 21:00Clear Sky15°C11 mph, N2%10000m1023hPa46%
22-Jun-2024 00:00Few Clouds13°C9 mph, N20%10000m1023hPa53%
22-Jun-2024 03:00Clear Sky11°C2 mph, N2%10000m1024hPa65%